Time;durP1;ratioP1;P1;durP2;ratioP2;P2;SDS_P1;SDS_P2;PMS_P1;PMS_P2;Temp;Humidity;BMP_temperature;BMP_pressure;BME280_temperature;BME280_humidity;BME280_pressure;Samples;Min_cycle;Max_cycle;Signal;HPM_P1;HPM_P2
2023/07/18 00:01:35;;;;;;;1.02;0.50;;;;;;;;;;5060583;28;20048;-78
2023/07/18 00:04:05;;;;;;;2.47;0.60;;;;;;;;;;5061742;28;20041;-79
2023/07/18 00:06:32;;;;;;;1.83;0.50;;;;;;;;;;5061993;28;20075;-78
2023/07/18 00:09:04;;;;;;;1.55;0.50;;;;;;;;;;5061742;28;20056;-79
2023/07/18 00:11:30;;;;;;;0.80;0.57;;;;;;;;;;5063174;28;20110;-79
2023/07/18 00:13:57;;;;;;;1.63;0.40;;;;;;;;;;5063282;28;20037;-79
2023/07/18 00:16:24;;;;;;;1.10;0.43;;;;;;;;;;5062037;28;20094;-79
2023/07/18 00:18:52;;;;;;;0.82;0.45;;;;;;;;;;5060777;28;20045;-77
2023/07/18 00:21:19;;;;;;;1.58;0.40;;;;;;;;;;5062189;28;20057;-79
2023/07/18 00:23:49;;;;;;;5.18;0.50;;;;;;;;;;5062244;28;20052;-78
2023/07/18 00:26:16;;;;;;;1.33;0.32;;;;;;;;;;5060873;28;20108;-78
2023/07/18 00:28:42;;;;;;;5.70;0.70;;;;;;;;;;5062801;28;20056;-79
2023/07/18 00:31:09;;;;;;;1.52;0.60;;;;;;;;;;5060958;28;20044;-79
2023/07/18 00:33:36;;;;;;;1.48;0.40;;;;;;;;;;5062865;28;20053;-79
2023/07/18 00:36:04;;;;;;;2.97;0.40;;;;;;;;;;5061088;28;20459;-78
2023/07/18 00:38:30;;;;;;;1.73;0.60;;;;;;;;;;5071173;28;20331;-77
2023/07/18 00:41:00;;;;;;;1.67;0.57;;;;;;;;;;5080229;28;20041;-78
2023/07/18 00:43:31;;;;;;;1.20;0.50;;;;;;;;;;5078988;28;20159;-78
2023/07/18 00:45:57;;;;;;;4.97;0.60;;;;;;;;;;5079092;28;20050;-78
2023/07/18 00:48:24;;;;;;;0.60;0.30;;;;;;;;;;5076005;28;20051;-79
2023/07/18 00:50:51;;;;;;;1.23;0.60;;;;;;;;;;5082148;28;20044;-78
2023/07/18 00:53:18;;;;;;;3.40;0.47;;;;;;;;;;5081774;28;20044;-78
2023/07/18 00:55:44;;;;;;;1.00;0.45;;;;;;;;;;5079845;28;20107;-79
2023/07/18 00:58:11;;;;;;;2.85;0.85;;;;;;;;;;5078809;28;20143;-78
2023/07/18 01:00:38;;;;;;;4.65;0.93;;;;;;;;;;5080828;28;20048;-78
2023/07/18 01:03:09;;;;;;;4.10;0.80;;;;;;;;;;5082888;28;20041;-77
2023/07/18 01:05:37;;;;;;;2.05;0.60;;;;;;;;;;5076656;28;20047;-75
2023/07/18 01:08:04;;;;;;;2.33;0.88;;;;;;;;;;5078314;28;20040;-78
2023/07/18 01:10:31;;;;;;;2.25;0.40;;;;;;;;;;5078896;28;20044;-78
2023/07/18 01:12:59;;;;;;;0.80;0.35;;;;;;;;;;5079882;28;20056;-78
2023/07/18 01:15:33;;;;;;;1.60;0.68;;;;;;;;;;5082833;28;20041;-78
2023/07/18 01:18:08;;;;;;;2.53;0.70;;;;;;;;;;5065752;28;20056;-77
2023/07/18 01:20:37;;;;;;;0.82;0.50;;;;;;;;;;5059991;28;20064;-77
2023/07/18 01:23:04;;;;;;;1.92;0.50;;;;;;;;;;5062308;28;20277;-79
2023/07/18 01:25:31;;;;;;;1.55;0.55;;;;;;;;;;5062502;28;20059;-80
2023/07/18 01:28:01;;;;;;;8.20;0.63;;;;;;;;;;5061763;28;20119;-79
2023/07/18 01:30:28;;;;;;;1.42;0.50;;;;;;;;;;5060990;28;20053;-78
2023/07/18 01:32:54;;;;;;;4.25;0.57;;;;;;;;;;5070008;28;20183;-78
2023/07/18 01:35:26;;;;;;;1.23;0.60;;;;;;;;;;5065962;28;20049;-79
2023/07/18 01:37:53;;;;;;;5.50;0.60;;;;;;;;;;5062437;28;20048;-79
2023/07/18 01:40:20;;;;;;;2.70;0.65;;;;;;;;;;5061865;28;20140;-77
2023/07/18 01:42:51;;;;;;;4.97;0.65;;;;;;;;;;5058766;28;20076;-77
2023/07/18 01:45:22;;;;;;;2.17;0.60;;;;;;;;;;5054205;28;20095;-80
2023/07/18 01:47:49;;;;;;;2.72;0.50;;;;;;;;;;5052096;28;20280;-77
2023/07/18 01:50:19;;;;;;;2.03;0.70;;;;;;;;;;5051152;28;20054;-77
2023/07/18 01:52:47;;;;;;;2.22;0.60;;;;;;;;;;5052976;28;20044;-77
2023/07/18 01:55:15;;;;;;;2.38;0.60;;;;;;;;;;5053617;28;20111;-78
2023/07/18 01:57:46;;;;;;;2.85;0.50;;;;;;;;;;5053175;28;20059;-79
2023/07/18 02:00:18;;;;;;;0.88;0.52;;;;;;;;;;5036290;28;20498;-79
2023/07/18 02:02:48;;;;;;;0.88;0.45;;;;;;;;;;5053157;28;20036;-79
2023/07/18 02:05:17;;;;;;;0.90;0.43;;;;;;;;;;5034753;28;20112;-78
2023/07/18 02:07:45;;;;;;;1.95;0.55;;;;;;;;;;5041564;28;20105;-78
2023/07/18 02:10:13;;;;;;;0.98;0.40;;;;;;;;;;5041579;28;20044;-79
2023/07/18 02:12:40;;;;;;;2.55;0.52;;;;;;;;;;5039247;28;20059;-81
2023/07/18 02:15:07;;;;;;;1.83;0.70;;;;;;;;;;5039368;28;20090;-77
2023/07/18 02:17:34;;;;;;;1.67;0.50;;;;;;;;;;5057956;28;20300;-76
2023/07/18 02:20:05;;;;;;;1.52;0.50;;;;;;;;;;5056651;28;20045;-78
2023/07/18 02:22:33;;;;;;;0.68;0.50;;;;;;;;;;5037198;28;20052;-77
2023/07/18 02:25:01;;;;;;;1.10;0.55;;;;;;;;;;5035880;28;20044;-80
2023/07/18 02:27:33;;;;;;;3.17;0.52;;;;;;;;;;5040304;28;20067;-77
2023/07/18 02:30:01;;;;;;;0.60;0.45;;;;;;;;;;5041019;28;20045;-77
2023/07/18 02:32:28;;;;;;;1.00;0.60;;;;;;;;;;5041247;28;20053;-79
2023/07/18 02:34:55;;;;;;;2.15;0.70;;;;;;;;;;5059166;28;20053;-78
2023/07/18 02:37:23;;;;;;;1.17;0.55;;;;;;;;;;5059600;28;20055;-78
2023/07/18 02:39:50;;;;;;;4.10;1.13;;;;;;;;;;5078788;28;20113;-80
2023/07/18 02:42:17;;;;;;;1.13;0.65;;;;;;;;;;5079995;28;20487;-78
2023/07/18 02:44:45;;;;;;;1.85;0.55;;;;;;;;;;5078588;28;20041;-80
2023/07/18 02:47:14;;;;;;;2.00;0.70;;;;;;;;;;5080651;28;20678;-79
2023/07/18 02:49:41;;;;;;;3.22;0.80;;;;;;;;;;5077739;28;20064;-78
2023/07/18 02:52:09;;;;;;;2.05;0.80;;;;;;;;;;5079426;28;20071;-77
2023/07/18 02:54:36;;;;;;;2.78;0.80;;;;;;;;;;5080283;28;20072;-78
2023/07/18 02:57:03;;;;;;;1.98;0.80;;;;;;;;;;5079196;28;20070;-78
2023/07/18 02:59:29;;;;;;;1.88;0.70;;;;;;;;;;5080657;28;20299;-77
2023/07/18 03:01:59;;;;;;;1.35;0.65;;;;;;;;;;5078741;28;20070;-79
2023/07/18 03:04:30;;;;;;;2.45;0.90;;;;;;;;;;5081139;28;20120;-79
2023/07/18 03:06:57;;;;;;;3.17;0.77;;;;;;;;;;5082726;28;20059;-79
2023/07/18 03:09:24;;;;;;;1.67;0.75;;;;;;;;;;5082820;28;20070;-79
2023/07/18 03:11:50;;;;;;;1.27;0.70;;;;;;;;;;5084279;28;20044;-78
2023/07/18 03:14:19;;;;;;;2.15;0.75;;;;;;;;;;5066409;28;20059;-79
2023/07/18 03:16:45;;;;;;;1.58;0.55;;;;;;;;;;5083167;28;20041;-78
2023/07/18 03:19:14;;;;;;;6.00;0.68;;;;;;;;;;5082699;28;20533;-78
2023/07/18 03:21:43;;;;;;;3.90;0.90;;;;;;;;;;5084789;28;20036;-78
2023/07/18 03:24:10;;;;;;;4.68;0.98;;;;;;;;;;5082065;28;20100;-79
2023/07/18 03:26:39;;;;;;;1.67;0.70;;;;;;;;;;5080559;28;20040;-79
2023/07/18 03:29:06;;;;;;;1.25;0.70;;;;;;;;;;5082825;28;20092;-79
2023/07/18 03:31:33;;;;;;;3.63;1.05;;;;;;;;;;5081306;28;20144;-78
2023/07/18 03:34:04;;;;;;;1.80;0.82;;;;;;;;;;5079097;28;20390;-78
2023/07/18 03:36:32;;;;;;;2.85;0.90;;;;;;;;;;5077295;28;20063;-79
2023/07/18 03:38:58;;;;;;;1.63;0.70;;;;;;;;;;5062562;28;20044;-78
2023/07/18 03:41:25;;;;;;;2.20;0.80;;;;;;;;;;5063664;28;20041;-79
2023/07/18 03:43:52;;;;;;;2.13;0.70;;;;;;;;;;5062874;28;20071;-80
2023/07/18 03:46:21;;;;;;;2.42;0.95;;;;;;;;;;5060767;28;20208;-80
2023/07/18 03:48:48;;;;;;;2.10;0.80;;;;;;;;;;5062649;28;20047;-78
2023/07/18 03:51:15;;;;;;;3.22;0.65;;;;;;;;;;5061508;28;20598;-80
2023/07/18 03:53:43;;;;;;;1.17;0.70;;;;;;;;;;5063221;28;20053;-78
2023/07/18 03:56:11;;;;;;;3.92;0.80;;;;;;;;;;5060159;28;20214;-78
2023/07/18 03:58:38;;;;;;;3.10;1.10;;;;;;;;;;5061124;28;20068;-79
2023/07/18 04:01:05;;;;;;;3.40;0.90;;;;;;;;;;5059796;28;20449;-78
2023/07/18 04:03:32;;;;;;;2.72;0.70;;;;;;;;;;5060335;28;20120;-77
2023/07/18 04:05:59;;;;;;;1.80;0.75;;;;;;;;;;5057852;28;20049;-78
2023/07/18 04:08:25;;;;;;;2.25;0.77;;;;;;;;;;5056016;28;20060;-77
2023/07/18 04:10:52;;;;;;;1.10;0.70;;;;;;;;;;5061855;28;20395;-79
2023/07/18 04:13:18;;;;;;;2.22;0.88;;;;;;;;;;5062414;28;20075;-78
2023/07/18 04:15:45;;;;;;;1.15;0.70;;;;;;;;;;5062675;28;20045;-79
2023/07/18 04:18:12;;;;;;;3.55;0.80;;;;;;;;;;5061568;28;20036;-79
2023/07/18 04:20:38;;;;;;;1.60;0.63;;;;;;;;;;5062095;28;20049;-78
2023/07/18 04:23:05;;;;;;;0.85;0.52;;;;;;;;;;5051391;28;20076;-78
2023/07/18 04:25:35;;;;;;;2.03;0.60;;;;;;;;;;5051904;28;20052;-78
2023/07/18 04:28:02;;;;;;;2.90;0.82;;;;;;;;;;5051913;28;20045;-78
2023/07/18 04:30:29;;;;;;;1.88;0.95;;;;;;;;;;5051784;28;20040;-77
2023/07/18 04:32:55;;;;;;;1.80;0.93;;;;;;;;;;5054251;28;20056;-77
2023/07/18 04:35:22;;;;;;;1.58;0.70;;;;;;;;;;5052654;28;20074;-79
2023/07/18 04:37:50;;;;;;;2.20;0.88;;;;;;;;;;5056798;28;20505;-79
2023/07/18 04:40:16;;;;;;;5.00;0.80;;;;;;;;;;5074385;28;20098;-79
2023/07/18 04:42:43;;;;;;;1.77;0.80;;;;;;;;;;5073719;28;20051;-79
2023/07/18 04:45:09;;;;;;;1.33;0.80;;;;;;;;;;5075888;28;20056;-79
2023/07/18 04:47:36;;;;;;;5.13;1.10;;;;;;;;;;5077693;28;20052;-79
2023/07/18 04:50:03;;;;;;;5.93;0.93;;;;;;;;;;5079043;28;20044;-78
2023/07/18 04:52:30;;;;;;;2.85;1.50;;;;;;;;;;5075828;28;20047;-79
2023/07/18 04:54:56;;;;;;;3.53;1.23;;;;;;;;;;5074297;28;20036;-80
2023/07/18 04:57:24;;;;;;;1.75;0.90;;;;;;;;;;5075511;28;20060;-79
2023/07/18 04:59:50;;;;;;;1.33;0.80;;;;;;;;;;5075611;28;20403;-78
2023/07/18 05:02:17;;;;;;;2.22;1.02;;;;;;;;;;5060022;28;20074;-78
2023/07/18 05:04:43;;;;;;;2.05;0.80;;;;;;;;;;5077171;28;20048;-80
2023/07/18 05:07:10;;;;;;;4.18;1.10;;;;;;;;;;5080601;28;20394;-80
2023/07/18 05:09:37;;;;;;;2.85;1.15;;;;;;;;;;5081951;28;20040;-79
2023/07/18 05:12:03;;;;;;;6.00;1.52;;;;;;;;;;5082966;28;20040;-81
2023/07/18 05:14:30;;;;;;;5.95;1.88;;;;;;;;;;5082688;28;20044;-81
2023/07/18 05:16:57;;;;;;;6.60;1.83;;;;;;;;;;5082320;28;20067;-79
2023/07/18 05:19:24;;;;;;;4.05;1.60;;;;;;;;;;5081538;28;20048;-79
2023/07/18 05:21:50;;;;;;;3.45;1.48;;;;;;;;;;5081637;28;20052;-81
2023/07/18 05:24:17;;;;;;;3.28;1.42;;;;;;;;;;5081302;28;20032;-81
2023/07/18 05:26:44;;;;;;;8.13;1.67;;;;;;;;;;5080538;28;20051;-80
2023/07/18 05:29:10;;;;;;;4.75;1.50;;;;;;;;;;5079879;28;20069;-80
2023/07/18 05:31:37;;;;;;;4.32;1.65;;;;;;;;;;5082013;28;20045;-80
2023/07/18 05:34:03;;;;;;;3.17;1.60;;;;;;;;;;5080361;28;20036;-79
2023/07/18 05:36:30;;;;;;;5.53;1.58;;;;;;;;;;5078882;28;20040;-80
2023/07/18 05:38:57;;;;;;;3.40;1.63;;;;;;;;;;5065721;28;20045;-81
2023/07/18 05:41:23;;;;;;;3.20;1.60;;;;;;;;;;5059990;28;20057;-81
2023/07/18 05:43:51;;;;;;;3.08;1.42;;;;;;;;;;5070368;28;20029;-79
2023/07/18 05:46:18;;;;;;;4.95;1.27;;;;;;;;;;5071005;28;20029;-81
2023/07/18 05:48:44;;;;;;;3.33;1.50;;;;;;;;;;5055663;28;20052;-81
2023/07/18 05:51:11;;;;;;;4.75;1.55;;;;;;;;;;5063410;28;20037;-80
2023/07/18 05:53:37;;;;;;;4.05;1.65;;;;;;;;;;5070588;28;20049;-79
2023/07/18 05:56:04;;;;;;;6.50;1.80;;;;;;;;;;5069625;28;20100;-79
2023/07/18 05:58:31;;;;;;;3.50;1.67;;;;;;;;;;5069847;28;20100;-80
2023/07/18 06:00:57;;;;;;;3.97;1.50;;;;;;;;;;5068448;28;20033;-80
2023/07/18 06:03:24;;;;;;;5.25;1.60;;;;;;;;;;5061628;28;20083;-82
2023/07/18 06:05:54;;;;;;;5.80;1.60;;;;;;;;;;5060348;28;20025;-79
2023/07/18 06:08:24;;;;;;;4.70;1.70;;;;;;;;;;5064004;28;20041;-80
2023/07/18 06:10:56;;;;;;;3.65;1.40;;;;;;;;;;5050750;28;20041;-80
2023/07/18 06:13:23;;;;;;;2.95;1.60;;;;;;;;;;5050678;28;20053;-80
2023/07/18 06:15:52;;;;;;;4.68;1.55;;;;;;;;;;5049959;28;20045;-80
2023/07/18 06:18:19;;;;;;;4.15;1.45;;;;;;;;;;5070472;28;20048;-77
2023/07/18 06:20:47;;;;;;;2.92;1.58;;;;;;;;;;5075109;28;20720;-78
2023/07/18 06:23:14;;;;;;;4.32;1.40;;;;;;;;;;5074702;28;20048;-77
2023/07/18 06:25:41;;;;;;;3.95;1.63;;;;;;;;;;5073700;28;20054;-80
2023/07/18 06:28:08;;;;;;;3.88;1.60;;;;;;;;;;5076567;28;20068;-79
2023/07/18 06:30:34;;;;;;;6.82;1.83;;;;;;;;;;5076124;28;20079;-80
2023/07/18 06:33:01;;;;;;;4.93;1.85;;;;;;;;;;5074367;28;20048;-81
2023/07/18 06:35:28;;;;;;;4.53;1.75;;;;;;;;;;5075831;28;20049;-79
2023/07/18 06:37:55;;;;;;;4.78;1.73;;;;;;;;;;5070897;28;20057;-80
2023/07/18 06:40:21;;;;;;;4.38;1.58;;;;;;;;;;5055952;28;20044;-81
2023/07/18 06:42:48;;;;;;;5.38;1.67;;;;;;;;;;5058543;28;20045;-78
2023/07/18 06:45:14;;;;;;;3.95;1.73;;;;;;;;;;5060271;28;20045;-79
2023/07/18 06:47:41;;;;;;;5.00;1.70;;;;;;;;;;5053879;28;20051;-79
2023/07/18 06:50:08;;;;;;;3.75;1.70;;;;;;;;;;5056827;28;20045;-80
2023/07/18 06:52:34;;;;;;;4.57;2.00;;;;;;;;;;5057760;28;20049;-80
2023/07/18 06:55:03;;;;;;;4.15;1.77;;;;;;;;;;5059370;28;20072;-79
2023/07/18 06:57:30;;;;;;;7.80;1.90;;;;;;;;;;5057194;28;20049;-80
2023/07/18 06:59:56;;;;;;;2.78;1.52;;;;;;;;;;5056297;28;20049;-80
2023/07/18 07:02:23;;;;;;;4.57;1.58;;;;;;;;;;5059483;28;20083;-79
2023/07/18 07:04:50;;;;;;;3.75;1.73;;;;;;;;;;5058707;28;20056;-78
2023/07/18 07:07:16;;;;;;;4.82;1.63;;;;;;;;;;5059562;28;20056;-80
2023/07/18 07:09:43;;;;;;;6.28;1.55;;;;;;;;;;5059206;28;20059;-80
2023/07/18 07:12:09;;;;;;;3.03;1.63;;;;;;;;;;5039626;28;20053;-80
2023/07/18 07:14:51;;;;;;;4.65;1.60;;;;;;;;;;5043031;28;20038;-79
2023/07/18 07:17:18;;;;;;;4.55;1.58;;;;;;;;;;5058426;28;20048;-79
2023/07/18 07:19:45;;;;;;;3.38;1.70;;;;;;;;;;5055870;28;20067;-80
2023/07/18 07:22:13;;;;;;;3.88;1.65;;;;;;;;;;5059651;28;20140;-79
2023/07/18 07:24:40;;;;;;;5.38;1.50;;;;;;;;;;5056636;28;20053;-79
2023/07/18 07:27:07;;;;;;;3.47;1.50;;;;;;;;;;5059028;28;20580;-79
2023/07/18 07:29:33;;;;;;;3.97;1.85;;;;;;;;;;5060028;28;20203;-79
2023/07/18 07:32:00;;;;;;;3.45;1.60;;;;;;;;;;5056518;28;20060;-79
2023/07/18 07:34:29;;;;;;;4.40;1.48;;;;;;;;;;5059689;28;20071;-80
2023/07/18 07:36:56;;;;;;;2.58;1.33;;;;;;;;;;5058071;28;20037;-80
2023/07/18 07:39:23;;;;;;;2.92;1.50;;;;;;;;;;5074005;28;20052;-80
2023/07/18 07:41:49;;;;;;;3.75;1.70;;;;;;;;;;5077851;28;20132;-80
2023/07/18 07:44:16;;;;;;;6.22;1.50;;;;;;;;;;5078379;28;20101;-80
2023/07/18 07:46:43;;;;;;;4.15;1.48;;;;;;;;;;5080001;28;20048;-78
2023/07/18 07:49:11;;;;;;;4.32;1.42;;;;;;;;;;5079318;28;20123;-80
2023/07/18 07:51:37;;;;;;;3.90;1.75;;;;;;;;;;5085052;28;20041;-80
2023/07/18 07:54:04;;;;;;;3.95;1.65;;;;;;;;;;5088866;28;20059;-77
2023/07/18 07:56:31;;;;;;;3.58;1.58;;;;;;;;;;5089041;28;20112;-80
2023/07/18 07:58:57;;;;;;;2.83;1.60;;;;;;;;;;5081957;28;20045;-80
2023/07/18 08:01:36;;;;;;;5.53;1.30;;;;;;;;;;5079514;28;20056;-79
2023/07/18 08:04:03;;;;;;;3.17;1.45;;;;;;;;;;5078763;28;20051;-80
2023/07/18 08:06:30;;;;;;;2.97;1.58;;;;;;;;;;5080319;28;20048;-80
2023/07/18 08:08:56;;;;;;;3.72;1.85;;;;;;;;;;5080744;28;20067;-80
2023/07/18 08:11:23;;;;;;;3.28;1.30;;;;;;;;;;5080349;28;20075;-79
2023/07/18 08:13:50;;;;;;;3.35;1.60;;;;;;;;;;5076806;28;20083;-79
2023/07/18 08:16:17;;;;;;;5.07;1.50;;;;;;;;;;5078938;28;20097;-79
2023/07/18 08:18:43;;;;;;;5.68;1.95;;;;;;;;;;5077595;28;20052;-80
2023/07/18 08:21:10;;;;;;;3.60;1.58;;;;;;;;;;5083362;28;20067;-81
2023/07/18 08:23:45;;;;;;;4.22;1.65;;;;;;;;;;5083444;28;20072;-80
2023/07/18 08:26:13;;;;;;;3.03;1.55;;;;;;;;;;5077173;28;20064;-80
2023/07/18 08:28:39;;;;;;;3.22;1.70;;;;;;;;;;5079226;28;20048;-80
2023/07/18 08:31:06;;;;;;;2.72;1.42;;;;;;;;;;5064203;28;20048;-80
2023/07/18 08:33:33;;;;;;;5.15;1.58;;;;;;;;;;5081046;28;20079;-79
2023/07/18 08:36:00;;;;;;;2.97;1.27;;;;;;;;;;5078514;28;20044;-77
2023/07/18 08:38:26;;;;;;;3.20;1.40;;;;;;;;;;5070867;28;20492;-80
2023/07/18 08:40:53;;;;;;;3.08;1.42;;;;;;;;;;5058257;28;20064;-78
2023/07/18 08:43:20;;;;;;;3.40;1.40;;;;;;;;;;5063016;28;20055;-79
2023/07/18 08:45:47;;;;;;;3.40;1.30;;;;;;;;;;5062409;28;20446;-80
2023/07/18 08:48:13;;;;;;;4.35;1.23;;;;;;;;;;5063538;28;20275;-81
2023/07/18 08:50:41;;;;;;;3.00;1.30;;;;;;;;;;5060858;28;20124;-80
2023/07/18 08:53:08;;;;;;;4.25;1.63;;;;;;;;;;5061089;28;20077;-79
2023/07/18 08:55:35;;;;;;;3.65;1.20;;;;;;;;;;5058847;28;20049;-79
2023/07/18 08:58:02;;;;;;;5.50;1.38;;;;;;;;;;5060645;28;20056;-80
2023/07/18 09:00:28;;;;;;;3.15;1.35;;;;;;;;;;5061952;28;20051;-78
2023/07/18 09:02:55;;;;;;;2.30;1.23;;;;;;;;;;5058955;28;20131;-79
2023/07/18 09:05:29;;;;;;;2.60;1.20;;;;;;;;;;5058766;28;20075;-80
2023/07/18 09:07:56;;;;;;;3.22;1.17;;;;;;;;;;5060342;28;20052;-80
2023/07/18 09:10:25;;;;;;;3.83;1.25;;;;;;;;;;5058131;28;20408;-80
2023/07/18 09:12:52;;;;;;;3.95;1.50;;;;;;;;;;5057987;28;20045;-80
2023/07/18 09:15:20;;;;;;;5.07;1.23;;;;;;;;;;5058663;28;20076;-79
2023/07/18 09:17:56;;;;;;;2.20;1.00;;;;;;;;;;5060067;28;20045;-79
2023/07/18 09:20:24;;;;;;;2.63;1.42;;;;;;;;;;5065512;28;20068;-78
2023/07/18 09:22:56;;;;;;;3.28;1.60;;;;;;;;;;5068440;28;20056;-79
2023/07/18 09:25:24;;;;;;;2.83;1.15;;;;;;;;;;5069360;28;20049;-78
2023/07/18 09:27:54;;;;;;;1.60;1.00;;;;;;;;;;5059124;28;20045;-78
2023/07/18 09:30:22;;;;;;;2.75;1.35;;;;;;;;;;5058346;28;20465;-78
2023/07/18 09:32:50;;;;;;;2.55;1.30;;;;;;;;;;5057629;28;20055;-80
2023/07/18 09:35:17;;;;;;;2.53;1.27;;;;;;;;;;5061304;28;20045;-80
2023/07/18 09:37:45;;;;;;;2.55;1.15;;;;;;;;;;5062337;28;20060;-79
2023/07/18 09:40:21;;;;;;;3.67;1.50;;;;;;;;;;5078556;28;20450;-80
2023/07/18 09:42:48;;;;;;;;;;;;;;;;;;5079028;28;20040;-80
2023/07/18 09:45:15;;;;;;;5.18;1.55;;;;;;;;;;5079735;28;19921;-80
2023/07/18 09:47:42;;;;;;;2.08;1.05;;;;;;;;;;5078445;28;20048;-79
2023/07/18 09:50:13;;;;;;;3.28;1.25;;;;;;;;;;5077057;28;20043;-80
2023/07/18 09:52:46;;;;;;;1.38;1.05;;;;;;;;;;5078410;28;20041;-80
2023/07/18 09:55:14;;;;;;;1.95;1.10;;;;;;;;;;5082060;28;20044;-81
2023/07/18 09:57:41;;;;;;;2.58;1.30;;;;;;;;;;5078814;28;20041;-80
2023/07/18 10:00:11;;;;;;;4.35;1.50;;;;;;;;;;5078486;28;20075;-80
2023/07/18 10:02:39;;;;;;;3.10;1.35;;;;;;;;;;5082690;28;20040;-79
2023/07/18 10:05:09;;;;;;;4.25;1.33;;;;;;;;;;5080764;28;20041;-80
2023/07/18 10:07:37;;;;;;;2.60;1.27;;;;;;;;;;5075773;28;20502;-78
2023/07/18 10:10:09;;;;;;;4.03;1.33;;;;;;;;;;5078607;28;20037;-78
2023/07/18 10:12:54;;;;;;;2.45;1.23;;;;;;;;;;5078089;28;20441;-79
2023/07/18 10:15:21;;;;;;;5.10;1.35;;;;;;;;;;5074650;28;20100;-80
2023/07/18 10:17:47;;;;;;;3.78;1.20;;;;;;;;;;5074619;28;20094;-80
2023/07/18 10:20:19;;;;;;;2.28;1.50;;;;;;;;;;5068059;28;20040;-79
2023/07/18 10:22:49;;;;;;;3.97;1.38;;;;;;;;;;5069774;28;20108;-79
2023/07/18 10:25:19;;;;;;;1.67;1.50;;;;;;;;;;5071693;28;20056;-81
2023/07/18 10:27:46;;;;;;;5.20;1.40;;;;;;;;;;5072735;28;20040;-78
2023/07/18 10:30:15;;;;;;;1.95;1.15;;;;;;;;;;5073303;28;20044;-79
2023/07/18 10:32:49;;;;;;;1.42;1.05;;;;;;;;;;5074089;28;20070;-80
2023/07/18 10:35:20;;;;;;;2.17;1.20;;;;;;;;;;5072826;28;20173;-79
2023/07/18 10:37:51;;;;;;;2.35;1.27;;;;;;;;;;5070774;28;20041;-78
2023/07/18 10:40:33;;;;;;;3.72;1.10;;;;;;;;;;5054319;28;20499;-79
2023/07/18 10:42:59;;;;;;;1.63;1.13;;;;;;;;;;5053650;28;20037;-80
2023/07/18 10:45:26;;;;;;;2.35;1.20;;;;;;;;;;5054758;28;20056;-79
2023/07/18 10:47:53;;;;;;;2.65;1.50;;;;;;;;;;5053381;28;20110;-79
2023/07/18 10:50:19;;;;;;;2.58;1.30;;;;;;;;;;5055541;28;20045;-78
2023/07/18 10:52:46;;;;;;;3.70;1.30;;;;;;;;;;5055331;28;20049;-79
2023/07/18 10:55:15;;;;;;;3.13;1.48;;;;;;;;;;5056552;28;20100;-79
2023/07/18 10:57:42;;;;;;;2.58;1.40;;;;;;;;;;5054819;28;20056;-80
2023/07/18 11:00:08;;;;;;;2.22;1.13;;;;;;;;;;5054829;28;20041;-78
2023/07/18 11:02:37;;;;;;;2.53;1.38;;;;;;;;;;5055570;28;20055;-78
2023/07/18 11:05:13;;;;;;;2.42;1.50;;;;;;;;;;5055294;28;20045;-78
2023/07/18 11:07:41;;;;;;;2.20;1.48;;;;;;;;;;5055296;28;20120;-77
2023/07/18 11:10:08;;;;;;;2.78;1.48;;;;;;;;;;5053916;28;20468;-80
2023/07/18 11:12:35;;;;;;;2.05;1.35;;;;;;;;;;5054880;28;20180;-79
2023/07/18 11:15:06;;;;;;;1.95;1.17;;;;;;;;;;5056240;28;20048;-80
2023/07/18 11:17:33;;;;;;;2.00;1.20;;;;;;;;;;5053727;28;20053;-78
2023/07/18 11:19:59;;;;;;;3.00;1.30;;;;;;;;;;5053680;28;20041;-78
2023/07/18 11:22:27;;;;;;;2.40;1.38;;;;;;;;;;5054596;28;20045;-79
2023/07/18 11:24:55;;;;;;;2.08;1.20;;;;;;;;;;5051884;28;20068;-78
2023/07/18 11:27:23;;;;;;;2.42;1.23;;;;;;;;;;5056360;28;20053;-79
2023/07/18 11:29:49;;;;;;;3.72;1.40;;;;;;;;;;5057411;28;20644;-78
2023/07/18 11:32:28;;;;;;;1.90;1.35;;;;;;;;;;5057976;28;20045;-78
2023/07/18 11:34:59;;;;;;;1.90;1.10;;;;;;;;;;5058784;28;20064;-79
2023/07/18 11:37:25;;;;;;;2.70;1.48;;;;;;;;;;5055578;28;20122;-80
2023/07/18 11:39:59;;;;;;;2.50;1.40;;;;;;;;;;5076680;28;20067;-81
2023/07/18 11:42:45;;;;;;;2.67;1.60;;;;;;;;;;5080289;28;20051;-81
2023/07/18 11:45:12;;;;;;;2.40;1.30;;;;;;;;;;5078385;28;20318;-79
2023/07/18 11:47:43;;;;;;;5.07;1.60;;;;;;;;;;5078084;28;20096;-79
2023/07/18 11:50:11;;;;;;;3.45;1.40;;;;;;;;;;5078785;28;20054;-79
2023/07/18 11:52:39;;;;;;;3.63;1.35;;;;;;;;;;5076932;28;20044;-78
2023/07/18 11:55:06;;;;;;;3.25;1.50;;;;;;;;;;5077657;28;20520;-78
2023/07/18 11:57:35;;;;;;;3.47;1.52;;;;;;;;;;5075498;28;20056;-78
2023/07/18 12:00:02;;;;;;;1.90;1.20;;;;;;;;;;5078306;28;20616;-78
2023/07/18 12:02:38;;;;;;;1.75;1.33;;;;;;;;;;5077423;28;20036;-79
2023/07/18 12:05:06;;;;;;;2.28;1.20;;;;;;;;;;5079617;28;20059;-78
2023/07/18 12:07:32;;;;;;;3.50;1.48;;;;;;;;;;5080199;28;20595;-78
2023/07/18 12:09:59;;;;;;;2.97;1.33;;;;;;;;;;5076228;28;20127;-80
2023/07/18 12:12:26;;;;;;;1.85;1.30;;;;;;;;;;5078063;28;20113;-77
2023/07/18 12:14:53;;;;;;;5.22;1.23;;;;;;;;;;5081204;28;20070;-79
2023/07/18 12:17:20;;;;;;;2.53;1.40;;;;;;;;;;5080089;28;20057;-79
2023/07/18 12:19:46;;;;;;;4.50;1.50;;;;;;;;;;5080451;28;20041;-79
2023/07/18 12:22:13;;;;;;;2.97;1.50;;;;;;;;;;5080051;28;20640;-78
2023/07/18 12:24:40;;;;;;;3.10;1.35;;;;;;;;;;5075566;28;20059;-79
2023/07/18 12:27:06;;;;;;;3.10;1.27;;;;;;;;;;5079984;28;20071;-78
2023/07/18 12:29:33;;;;;;;3.45;1.40;;;;;;;;;;5080739;28;20072;-79
2023/07/18 12:32:00;;;;;;;2.95;1.50;;;;;;;;;;5081459;28;20326;-79
2023/07/18 12:34:27;;;;;;;1.95;1.23;;;;;;;;;;5065189;28;20052;-80
2023/07/18 12:36:54;;;;;;;3.83;1.45;;;;;;;;;;5083215;28;20037;-80
2023/07/18 12:39:21;;;;;;;2.42;1.27;;;;;;;;;;5064155;28;20091;-78
2023/07/18 12:41:47;;;;;;;2.13;1.40;;;;;;;;;;5060344;28;20072;-78
2023/07/18 12:44:18;;;;;;;2.35;1.40;;;;;;;;;;5064430;28;20164;-76
2023/07/18 12:46:46;;;;;;;2.70;1.23;;;;;;;;;;5070723;28;20049;-79
2023/07/18 12:49:13;;;;;;;4.90;1.65;;;;;;;;;;5072380;28;20064;-79
2023/07/18 12:51:43;;;;;;;4.63;1.20;;;;;;;;;;5060461;28;20059;-78
2023/07/18 12:54:10;;;;;;;3.33;1.20;;;;;;;;;;5057219;28;20244;-79
2023/07/18 12:56:37;;;;;;;6.35;1.50;;;;;;;;;;5058373;28;20045;-79
2023/07/18 12:59:05;;;;;;;2.47;1.30;;;;;;;;;;5062009;28;20041;-78
2023/07/18 13:01:32;;;;;;;4.10;1.27;;;;;;;;;;5059727;28;20037;-78
2023/07/18 13:03:59;;;;;;;3.47;1.40;;;;;;;;;;5058839;28;20045;-81
2023/07/18 13:06:25;;;;;;;3.38;1.17;;;;;;;;;;5058605;28;20052;-79
2023/07/18 13:08:52;;;;;;;4.28;1.30;;;;;;;;;;5057043;28;20045;-77
2023/07/18 13:11:19;;;;;;;7.78;1.45;;;;;;;;;;5057131;28;20474;-79
2023/07/18 13:13:46;;;;;;;1.77;1.15;;;;;;;;;;5058948;28;20051;-79
2023/07/18 13:16:12;;;;;;;2.92;1.40;;;;;;;;;;5055816;28;20100;-79
2023/07/18 13:18:39;;;;;;;1.90;1.45;;;;;;;;;;5054456;28;20041;-79
2023/07/18 13:21:06;;;;;;;2.58;1.33;;;;;;;;;;5058618;28;20048;-79
2023/07/18 13:23:33;;;;;;;4.05;1.40;;;;;;;;;;5059008;28;20060;-79
2023/07/18 13:25:59;;;;;;;2.00;1.23;;;;;;;;;;5056730;28;20132;-77
2023/07/18 13:28:26;;;;;;;2.78;1.40;;;;;;;;;;5042800;28;20049;-79
2023/07/18 13:30:54;;;;;;;2.72;1.48;;;;;;;;;;5037586;28;20597;-79
2023/07/18 13:33:21;;;;;;;3.92;1.33;;;;;;;;;;5038274;28;20047;-79
2023/07/18 13:35:47;;;;;;;2.50;1.30;;;;;;;;;;5021101;28;20072;-79
2023/07/18 13:38:14;;;;;;;2.03;1.23;;;;;;;;;;5011557;28;20052;-80
2023/07/18 13:40:42;;;;;;;2.35;1.42;;;;;;;;;;5058854;28;20057;-80
2023/07/18 13:43:12;;;;;;;3.60;1.38;;;;;;;;;;5059459;28;20056;-79
2023/07/18 13:45:39;;;;;;;1.58;1.30;;;;;;;;;;5040542;28;20049;-77
2023/07/18 13:48:05;;;;;;;2.45;1.35;;;;;;;;;;5055263;28;20048;-78
2023/07/18 13:50:35;;;;;;;4.20;1.45;;;;;;;;;;5056592;28;20049;-77
2023/07/18 13:53:04;;;;;;;2.47;1.40;;;;;;;;;;5056108;28;20117;-79
2023/07/18 13:55:31;;;;;;;2.35;1.30;;;;;;;;;;5057218;28;20052;-77
2023/07/18 13:57:57;;;;;;;3.20;1.70;;;;;;;;;;5056930;28;20075;-79
2023/07/18 14:00:24;;;;;;;2.22;1.30;;;;;;;;;;5059634;28;20503;-79
2023/07/18 14:02:51;;;;;;;2.58;1.42;;;;;;;;;;5056577;28;20041;-78
2023/07/18 14:05:17;;;;;;;2.60;1.55;;;;;;;;;;5055970;28;20101;-79
2023/07/18 14:07:44;;;;;;;5.20;1.27;;;;;;;;;;5056621;28;20101;-80
2023/07/18 14:10:14;;;;;;;3.05;1.48;;;;;;;;;;5056833;28;20041;-80
2023/07/18 14:12:40;;;;;;;2.10;1.38;;;;;;;;;;5057896;28;20094;-79
2023/07/18 14:15:07;;;;;;;2.75;1.30;;;;;;;;;;5060886;28;20059;-77
2023/07/18 14:17:34;;;;;;;4.10;1.70;;;;;;;;;;5059958;28;20037;-78
2023/07/18 14:20:00;;;;;;;2.33;1.60;;;;;;;;;;5053872;28;20072;-79
2023/07/18 14:22:27;;;;;;;2.30;1.38;;;;;;;;;;5059052;28;20071;-79
2023/07/18 14:24:54;;;;;;;4.07;1.40;;;;;;;;;;5055718;28;20503;-78
2023/07/18 14:27:22;;;;;;;2.58;1.35;;;;;;;;;;5051958;28;20048;-78
2023/07/18 14:29:50;;;;;;;2.63;1.55;;;;;;;;;;5050705;28;20045;-79
2023/07/18 14:32:17;;;;;;;2.75;1.50;;;;;;;;;;5052650;28;20055;-79
2023/07/18 14:34:43;;;;;;;3.45;1.38;;;;;;;;;;5052445;28;20040;-81
2023/07/18 14:37:10;;;;;;;4.38;1.50;;;;;;;;;;5053502;28;20040;-78
2023/07/18 14:39:38;;;;;;;3.25;1.50;;;;;;;;;;5065386;28;20076;-79
2023/07/18 14:42:06;;;;;;;4.07;1.67;;;;;;;;;;5080748;28;20053;-78
2023/07/18 14:44:36;;;;;;;3.20;1.40;;;;;;;;;;5085095;28;20058;-79
2023/07/18 14:47:03;;;;;;;2.33;1.52;;;;;;;;;;5087023;28;20094;-78